Time;durP1;ratioP1;P1;durP2;ratioP2;P2;SDS_P1;SDS_P2;PMS_P1;PMS_P2;Temp;Humidity;BMP_temperature;BMP_pressure;BME280_temperature;BME280_humidity;BME280_pressure;Samples;Min_cycle;Max_cycle;Signal;HPM_P1;HPM_P2
2022/04/23 00:01:06;;;;;;;12.25;5.92;;;;;;;;;;1663327;85;21181;-73
2022/04/23 00:03:34;;;;;;;9.38;5.95;;;;;;;;;;1690812;85;21112;-73
2022/04/23 00:06:00;;;;;;;9.70;6.10;;;;;;;;;;1683875;85;21525;-73
2022/04/23 00:08:27;;;;;;;8.63;6.20;;;;;;;;;;1691109;85;21040;-73
2022/04/23 00:10:54;;;;;;;7.53;4.80;;;;;;;;;;1691036;85;21048;-73
2022/04/23 00:13:20;;;;;;;8.18;5.55;;;;;;;;;;1691157;85;21049;-73
2022/04/23 00:15:47;;;;;;;8.73;5.75;;;;;;;;;;1691701;85;21049;-73
2022/04/23 00:18:13;;;;;;;8.23;5.83;;;;;;;;;;1691432;85;21553;-73
2022/04/23 00:20:39;;;;;;;9.50;5.60;;;;;;;;;;1686744;85;21013;-73
2022/04/23 00:23:06;;;;;;;8.58;5.55;;;;;;;;;;1674972;85;21110;-73
2022/04/23 00:25:38;;;;;;;9.08;5.90;;;;;;;;;;1691332;85;21013;-73
2022/04/23 00:28:05;;;;;;;8.33;5.65;;;;;;;;;;1626525;86;21047;-73
2022/04/23 00:30:32;;;;;;;10.38;5.60;;;;;;;;;;1691095;85;21520;-73
2022/04/23 00:33:00;;;;;;;10.08;6.10;;;;;;;;;;1676179;85;21064;-73
2022/04/23 00:35:27;;;;;;;8.20;6.47;;;;;;;;;;1670359;85;21551;-73
2022/04/23 00:37:53;;;;;;;9.30;5.42;;;;;;;;;;1660453;85;21091;-73
2022/04/23 00:40:24;;;;;;;9.15;4.97;;;;;;;;;;1690410;85;21056;-73
2022/04/23 00:42:54;;;;;;;8.68;5.65;;;;;;;;;;1651116;85;21085;-73
2022/04/23 00:45:24;;;;;;;7.83;5.55;;;;;;;;;;1678347;85;21576;-73
2022/04/23 00:47:51;;;;;;;9.53;5.70;;;;;;;;;;1734154;82;21017;-74
2022/04/23 00:50:21;;;;;;;8.25;5.37;;;;;;;;;;1731589;82;21580;-73
2022/04/23 00:52:47;;;;;;;8.30;6.17;;;;;;;;;;1746849;82;21005;-73
2022/04/23 00:55:15;;;;;;;10.05;5.30;;;;;;;;;;1685181;84;21029;-74
2022/04/23 00:57:41;;;;;;;7.87;5.30;;;;;;;;;;1678298;85;21576;-74
2022/04/23 01:00:08;;;;;;;7.30;5.20;;;;;;;;;;1678351;85;21587;-74
2022/04/23 01:05:23;;;;;;;6.22;4.83;;;;;;;;;;1735847;80;21149;-74
2022/04/23 01:07:51;;;;;;;9.20;5.12;;;;;;;;;;1738741;82;21028;-74
2022/04/23 01:10:19;;;;;;;8.43;4.55;;;;;;;;;;1693659;84;21101;-74
2022/04/23 01:12:46;;;;;;;7.58;4.78;;;;;;;;;;1729898;83;21095;-74
2022/04/23 01:15:14;;;;;;;7.70;4.30;;;;;;;;;;1713508;83;21075;-74
2022/04/23 01:17:40;;;;;;;7.87;4.53;;;;;;;;;;1710856;83;21040;-74
2022/04/23 01:20:11;;;;;;;7.85;4.92;;;;;;;;;;1712616;83;21116;-74
2022/04/23 01:22:41;;;;;;;7.97;4.60;;;;;;;;;;1719643;83;21078;-73
2022/04/23 01:25:07;;;;;;;5.65;4.25;;;;;;;;;;1684406;85;21087;-73
2022/04/23 01:27:36;;;;;;;6.40;4.15;;;;;;;;;;1726775;83;21056;-73
2022/04/23 01:30:06;;;;;;;6.50;4.10;;;;;;;;;;1726573;83;21026;-73
2022/04/23 01:32:32;;;;;;;7.60;4.25;;;;;;;;;;1726623;83;21543;-73
2022/04/23 01:34:58;;;;;;;6.40;4.47;;;;;;;;;;1726719;83;20972;-73
2022/04/23 01:37:25;;;;;;;6.35;4.50;;;;;;;;;;1726519;83;21016;-73
2022/04/23 01:39:51;;;;;;;5.40;4.33;;;;;;;;;;1726736;83;21034;-74
2022/04/23 01:42:19;;;;;;;6.30;4.10;;;;;;;;;;1726972;83;21038;-73
2022/04/23 01:44:48;;;;;;;6.95;4.03;;;;;;;;;;1726463;83;21583;-73
2022/04/23 01:47:15;;;;;;;5.12;3.75;;;;;;;;;;1726883;83;21011;-73
2022/04/23 01:49:42;;;;;;;6.55;3.85;;;;;;;;;;1726838;83;21503;-73
2022/04/23 01:52:10;;;;;;;5.60;4.00;;;;;;;;;;1727194;83;21039;-72
2022/04/23 01:56:37;;;;;;;5.85;4.08;;;;;;;;;;1819776;79;22928;-73
2022/04/23 01:59:04;;;;;;;5.75;4.00;;;;;;;;;;1792921;80;21048;-73
2022/04/23 02:01:31;;;;;;;5.50;3.98;;;;;;;;;;1793060;80;21059;-75
2022/04/23 02:03:57;;;;;;;6.47;4.25;;;;;;;;;;1753090;81;21588;-74
2022/04/23 02:06:26;;;;;;;6.03;4.00;;;;;;;;;;1775911;81;21108;-72
2022/04/23 02:08:52;;;;;;;5.00;3.20;;;;;;;;;;1761455;81;20991;-73
2022/04/23 02:11:19;;;;;;;5.90;3.87;;;;;;;;;;1773214;81;21643;-73
2022/04/23 02:13:47;;;;;;;5.97;3.58;;;;;;;;;;1768742;81;21106;-73
2022/04/23 02:16:14;;;;;;;4.53;3.60;;;;;;;;;;1774788;81;21068;-73
2022/04/23 02:18:40;;;;;;;5.62;3.55;;;;;;;;;;1777089;81;20989;-73
2022/04/23 02:21:07;;;;;;;6.08;3.60;;;;;;;;;;1773680;81;21029;-73
2022/04/23 02:23:33;;;;;;;5.90;3.90;;;;;;;;;;1766012;81;21000;-73
2022/04/23 02:26:00;;;;;;;5.12;3.98;;;;;;;;;;1773624;81;21036;-73
2022/04/23 02:28:26;;;;;;;5.80;3.80;;;;;;;;;;1777423;81;21033;-73
2022/04/23 02:30:54;;;;;;;5.60;3.65;;;;;;;;;;1777038;81;21013;-73
2022/04/23 02:33:21;;;;;;;5.35;3.55;;;;;;;;;;1777333;81;21045;-73
2022/04/23 02:35:47;;;;;;;6.45;3.95;;;;;;;;;;1770888;81;21526;-73
2022/04/23 02:38:17;;;;;;;4.60;3.52;;;;;;;;;;1777539;81;21076;-72
2022/04/23 02:40:41;;;;;;;6.08;3.87;;;;;;;;;;1774394;81;21012;-73
2022/04/23 02:43:12;;;;;;;5.58;3.37;;;;;;;;;;1746807;81;21091;-73
2022/04/23 02:45:39;;;;;;;4.97;3.77;;;;;;;;;;1771145;81;21096;-73
2022/04/23 02:48:05;;;;;;;5.35;3.75;;;;;;;;;;1764688;81;21507;-73
2022/04/23 02:50:39;;;;;;;6.28;3.58;;;;;;;;;;1737338;81;21099;-72
2022/04/23 02:53:05;;;;;;;5.33;4.15;;;;;;;;;;1762440;81;21054;-73
2022/04/23 02:55:33;;;;;;;6.05;4.05;;;;;;;;;;1763227;81;21071;-73
2022/04/23 02:58:03;;;;;;;5.90;3.90;;;;;;;;;;1767510;81;21056;-73
2022/04/23 03:00:29;;;;;;;6.75;3.55;;;;;;;;;;1768632;81;21007;-73
2022/04/23 03:02:57;;;;;;;6.03;3.95;;;;;;;;;;1760817;80;21087;-72
2022/04/23 03:05:24;;;;;;;6.22;4.20;;;;;;;;;;1765773;81;21068;-72
2022/04/23 03:07:50;;;;;;;5.30;3.72;;;;;;;;;;1762259;81;21086;-72
2022/04/23 03:10:18;;;;;;;5.62;4.08;;;;;;;;;;1764911;81;21092;-72
2022/04/23 03:12:44;;;;;;;7.25;4.05;;;;;;;;;;1759095;81;21096;-73
2022/04/23 03:15:13;;;;;;;5.78;3.50;;;;;;;;;;1765466;81;20968;-72
2022/04/23 03:17:39;;;;;;;5.33;3.58;;;;;;;;;;1759118;81;21051;-73
2022/04/23 03:20:10;;;;;;;8.18;4.33;;;;;;;;;;1766299;81;21586;-72
2022/04/23 03:22:38;;;;;;;5.75;3.30;;;;;;;;;;1768695;81;21096;-73
2022/04/23 03:25:09;;;;;;;6.00;3.98;;;;;;;;;;1767882;81;21096;-73
2022/04/23 03:27:35;;;;;;;5.28;3.22;;;;;;;;;;1766104;81;21598;-73
2022/04/23 03:30:02;;;;;;;4.47;3.60;;;;;;;;;;1765242;81;21049;-73
2022/04/23 03:32:30;;;;;;;6.90;4.00;;;;;;;;;;1769039;81;21120;-73
2022/04/23 03:34:56;;;;;;;6.47;4.05;;;;;;;;;;1768635;81;21044;-73
2022/04/23 03:37:23;;;;;;;5.03;3.58;;;;;;;;;;1760509;81;21012;-73
2022/04/23 03:39:49;;;;;;;6.08;3.75;;;;;;;;;;1763306;81;21059;-73
2022/04/23 03:42:15;;;;;;;5.55;3.58;;;;;;;;;;1757202;81;21000;-73
2022/04/23 03:44:43;;;;;;;7.67;4.25;;;;;;;;;;1756158;81;21595;-73
2022/04/23 03:47:10;;;;;;;8.25;4.92;;;;;;;;;;1764406;81;21026;-72
2022/04/23 03:49:36;;;;;;;6.35;3.70;;;;;;;;;;1763566;81;22148;-72
2022/04/23 03:52:03;;;;;;;5.67;4.35;;;;;;;;;;1765759;81;21093;-72
2022/04/23 03:54:30;;;;;;;5.70;4.17;;;;;;;;;;1767455;81;21495;-72
2022/04/23 03:56:56;;;;;;;5.83;4.12;;;;;;;;;;1755310;81;21228;-72
2022/04/23 03:59:24;;;;;;;6.97;4.33;;;;;;;;;;1761815;81;21029;-72
2022/04/23 04:01:55;;;;;;;6.78;4.00;;;;;;;;;;1754164;81;21543;-72
2022/04/23 04:04:23;;;;;;;5.58;3.72;;;;;;;;;;1759262;81;21051;-72
2022/04/23 04:06:51;;;;;;;6.03;4.28;;;;;;;;;;1748017;81;21058;-75
2022/04/23 04:09:18;;;;;;;8.78;4.08;;;;;;;;;;1750565;81;21400;-73
2022/04/23 04:12:03;;;;;;;4.92;3.92;;;;;;;;;;1757698;81;21046;-72
2022/04/23 04:14:34;;;;;;;6.20;4.60;;;;;;;;;;1754883;81;21662;-73
2022/04/23 04:17:01;;;;;;;6.20;4.08;;;;;;;;;;1763356;81;20985;-74
2022/04/23 04:19:29;;;;;;;6.35;4.22;;;;;;;;;;1762997;81;21017;-73
2022/04/23 04:21:56;;;;;;;9.05;4.80;;;;;;;;;;1743346;81;21027;-73
2022/04/23 04:24:23;;;;;;;6.25;4.58;;;;;;;;;;1749404;81;21083;-73
2022/04/23 04:26:50;;;;;;;6.62;4.62;;;;;;;;;;1733347;81;21479;-74
2022/04/23 04:29:16;;;;;;;6.65;4.70;;;;;;;;;;1750870;81;21053;-74
2022/04/23 04:31:47;;;;;;;7.22;4.90;;;;;;;;;;1749154;81;21028;-73
2022/04/23 04:34:16;;;;;;;4.62;3.30;;;;;;;;;;1753046;81;21155;-73
2022/04/23 04:36:42;;;;;;;7.62;4.22;;;;;;;;;;1761013;81;21009;-74
2022/04/23 04:39:10;;;;;;;5.90;3.60;;;;;;;;;;1755414;81;21547;-74
2022/04/23 04:41:37;;;;;;;6.60;4.50;;;;;;;;;;1750527;81;21036;-73
2022/04/23 04:44:04;;;;;;;4.65;3.35;;;;;;;;;;1753137;81;21031;-73
2022/04/23 04:46:32;;;;;;;5.62;4.12;;;;;;;;;;1761907;81;21037;-74
2022/04/23 04:48:58;;;;;;;5.65;3.72;;;;;;;;;;1760251;81;20992;-73
2022/04/23 04:51:24;;;;;;;6.35;4.03;;;;;;;;;;1756991;81;21029;-73
2022/04/23 04:53:52;;;;;;;4.85;3.75;;;;;;;;;;1756142;81;21083;-73
2022/04/23 04:56:20;;;;;;;8.28;4.60;;;;;;;;;;1756686;81;21067;-73
2022/04/23 04:58:46;;;;;;;6.35;4.10;;;;;;;;;;1762640;81;21053;-74
2022/04/23 05:01:15;;;;;;;7.45;4.33;;;;;;;;;;1757131;81;21108;-74
2022/04/23 05:03:43;;;;;;;6.95;4.97;;;;;;;;;;1762189;80;21593;-73
2022/04/23 05:06:09;;;;;;;6.15;4.65;;;;;;;;;;1756800;81;21021;-74
2022/04/23 05:08:36;;;;;;;7.47;4.53;;;;;;;;;;1768560;81;21613;-74
2022/04/23 05:11:04;;;;;;;8.55;4.67;;;;;;;;;;1761704;81;20970;-74
2022/04/23 05:13:31;;;;;;;7.00;4.17;;;;;;;;;;1763662;81;21551;-73
2022/04/23 05:16:00;;;;;;;6.60;4.62;;;;;;;;;;1761867;81;21031;-72
2022/04/23 05:18:26;;;;;;;7.42;5.00;;;;;;;;;;1759018;81;21000;-73
2022/04/23 05:20:54;;;;;;;7.62;5.00;;;;;;;;;;1758523;81;21027;-73
2022/04/23 05:23:21;;;;;;;6.80;4.42;;;;;;;;;;1758636;81;21051;-74
2022/04/23 05:25:47;;;;;;;5.67;4.33;;;;;;;;;;1762589;81;21071;-74
2022/04/23 05:28:14;;;;;;;7.15;5.10;;;;;;;;;;1768787;81;21061;-74
2022/04/23 05:30:42;;;;;;;8.48;4.85;;;;;;;;;;1769114;81;21072;-74
2022/04/23 05:33:08;;;;;;;4.83;3.65;;;;;;;;;;1769248;81;21060;-74
2022/04/23 05:35:37;;;;;;;6.35;4.55;;;;;;;;;;1766996;81;21935;-73
2022/04/23 05:38:05;;;;;;;6.65;4.35;;;;;;;;;;1763915;81;21041;-74
2022/04/23 05:40:33;;;;;;;7.35;4.92;;;;;;;;;;1733394;81;21091;-75
2022/04/23 05:42:59;;;;;;;7.03;4.37;;;;;;;;;;1760243;81;21055;-75
2022/04/23 05:45:28;;;;;;;6.22;4.65;;;;;;;;;;1759145;81;21582;-74
2022/04/23 05:47:56;;;;;;;7.12;3.98;;;;;;;;;;1763420;81;21038;-75
2022/04/23 05:50:22;;;;;;;6.80;5.10;;;;;;;;;;1773598;79;21011;-76
2022/04/23 05:52:49;;;;;;;7.33;4.70;;;;;;;;;;1772743;81;21048;-76
2022/04/23 05:55:16;;;;;;;7.30;4.83;;;;;;;;;;1773634;79;21049;-76
2022/04/23 05:57:42;;;;;;;6.65;4.65;;;;;;;;;;1773760;78;21025;-79
2022/04/23 06:00:09;;;;;;;6.65;4.62;;;;;;;;;;1773652;79;21267;-77
2022/04/23 06:02:38;;;;;;;7.78;5.20;;;;;;;;;;1761186;79;21026;-77
2022/04/23 06:05:04;;;;;;;6.60;4.67;;;;;;;;;;1757396;82;21041;-78
2022/04/23 06:07:32;;;;;;;5.58;4.10;;;;;;;;;;1756242;81;21520;-78
2022/04/23 06:09:58;;;;;;;6.20;4.70;;;;;;;;;;1755783;81;21032;-79
2022/04/23 06:12:25;;;;;;;7.67;5.28;;;;;;;;;;1756234;82;21072;-79
2022/04/23 06:14:52;;;;;;;5.42;4.45;;;;;;;;;;1755589;82;21674;-77
2022/04/23 06:17:27;;;;;;;9.13;4.60;;;;;;;;;;1722204;82;21021;-78
2022/04/23 06:19:53;;;;;;;6.62;5.25;;;;;;;;;;1726983;82;21075;-77
2022/04/23 06:22:21;;;;;;;8.78;5.30;;;;;;;;;;1754909;82;21346;-78
2022/04/23 06:24:49;;;;;;;7.45;4.58;;;;;;;;;;1755566;82;21547;-78
2022/04/23 06:27:17;;;;;;;7.33;5.22;;;;;;;;;;1737493;82;20995;-76
2022/04/23 06:29:43;;;;;;;6.45;4.60;;;;;;;;;;1756086;82;21076;-78
2022/04/23 06:32:11;;;;;;;6.35;4.62;;;;;;;;;;1755871;81;21088;-78
2022/04/23 06:34:37;;;;;;;6.62;5.08;;;;;;;;;;1732488;82;21599;-78
2022/04/23 06:37:04;;;;;;;7.00;4.28;;;;;;;;;;1753496;82;21033;-78
2022/04/23 06:39:31;;;;;;;6.55;4.50;;;;;;;;;;1756468;82;21040;-78
2022/04/23 06:41:58;;;;;;;6.92;4.50;;;;;;;;;;1756051;81;21060;-77
2022/04/23 06:44:24;;;;;;;6.20;4.97;;;;;;;;;;1756515;82;21045;-78
2022/04/23 06:46:52;;;;;;;6.10;4.53;;;;;;;;;;1755560;82;21036;-77
2022/04/23 06:49:18;;;;;;;6.55;5.00;;;;;;;;;;1756435;82;21041;-77
2022/04/23 06:51:44;;;;;;;6.87;4.62;;;;;;;;;;1756384;82;21029;-78
2022/04/23 06:54:11;;;;;;;7.20;5.33;;;;;;;;;;1756224;81;21099;-78
2022/04/23 06:56:39;;;;;;;5.50;4.35;;;;;;;;;;1752034;81;21052;-78
2022/04/23 06:59:05;;;;;;;5.58;4.20;;;;;;;;;;1748124;82;21540;-76
2022/04/23 07:01:34;;;;;;;8.08;5.65;;;;;;;;;;1741877;82;21017;-78
2022/04/23 07:04:00;;;;;;;6.78;5.05;;;;;;;;;;1747961;81;21214;-77
2022/04/23 07:06:29;;;;;;;6.25;4.47;;;;;;;;;;1748248;82;21002;-78
2022/04/23 07:08:56;;;;;;;7.75;5.60;;;;;;;;;;1748181;82;20979;-78
2022/04/23 07:11:23;;;;;;;5.95;4.08;;;;;;;;;;1748262;81;21017;-78
2022/04/23 07:13:50;;;;;;;6.05;4.67;;;;;;;;;;1747943;81;21041;-77
2022/04/23 07:16:17;;;;;;;6.72;4.97;;;;;;;;;;1747926;82;21060;-79
2022/04/23 07:18:45;;;;;;;8.25;4.87;;;;;;;;;;1749362;82;21026;-78
2022/04/23 07:21:11;;;;;;;7.22;4.65;;;;;;;;;;1745754;82;21068;-79
2022/04/23 07:26:24;;;;;;;7.87;5.25;;;;;;;;;;1747810;82;21066;-78
2022/04/23 07:28:51;;;;;;;6.25;4.62;;;;;;;;;;1747742;82;21010;-77
2022/04/23 07:31:17;;;;;;;7.28;5.15;;;;;;;;;;1747699;82;21112;-78
2022/04/23 07:39:17;;;;;;;9.13;5.25;;;;;;;;;;1748149;82;21134;-78
2022/04/23 07:41:45;;;;;;;5.42;4.85;;;;;;;;;;1748134;82;21060;-77
2022/04/23 07:44:12;;;;;;;6.78;4.45;;;;;;;;;;1747755;82;21030;-79
2022/04/23 07:46:39;;;;;;;7.67;4.70;;;;;;;;;;1748237;82;21061;-78
2022/04/23 07:49:06;;;;;;;6.17;4.30;;;;;;;;;;1744501;82;21095;-79
2022/04/23 07:51:33;;;;;;;6.72;5.17;;;;;;;;;;1747702;82;21130;-78
2022/04/23 07:53:59;;;;;;;6.72;4.60;;;;;;;;;;1748177;82;21063;-79
2022/04/23 07:56:27;;;;;;;6.05;4.90;;;;;;;;;;1747624;81;21210;-79
2022/04/23 07:58:53;;;;;;;6.55;4.80;;;;;;;;;;1748217;82;21009;-80
2022/04/23 08:01:19;;;;;;;6.92;5.12;;;;;;;;;;1749273;80;21350;-79
2022/04/23 08:03:47;;;;;;;6.00;4.72;;;;;;;;;;1747781;81;21595;-80
2022/04/23 08:06:13;;;;;;;7.85;4.78;;;;;;;;;;1748349;82;21046;-79
2022/04/23 08:08:39;;;;;;;6.20;4.80;;;;;;;;;;1748212;82;20993;-79
2022/04/23 08:11:06;;;;;;;6.03;4.60;;;;;;;;;;1748233;82;21549;-80
2022/04/23 08:13:34;;;;;;;6.10;4.35;;;;;;;;;;1740994;82;21077;-79
2022/04/23 08:16:00;;;;;;;6.50;4.30;;;;;;;;;;1739861;82;21001;-80
2022/04/23 08:18:27;;;;;;;6.22;4.92;;;;;;;;;;1744084;82;21030;-79
2022/04/23 08:20:53;;;;;;;6.55;4.20;;;;;;;;;;1747459;82;21736;-77
2022/04/23 08:23:23;;;;;;;6.25;4.40;;;;;;;;;;1747928;82;21049;-78
2022/04/23 08:25:51;;;;;;;6.05;4.45;;;;;;;;;;1718212;83;21559;-78
2022/04/23 08:31:03;;;;;;;5.75;4.37;;;;;;;;;;1724606;82;21124;-79
2022/04/23 08:33:57;;;;;;;8.20;4.83;;;;;;;;;;1747995;82;21078;-79
2022/04/23 08:35:58;;;;;;;6.28;4.75;;;;;;;;;;1746222;82;21017;-80
2022/04/23 08:38:24;;;;;;;6.35;4.08;;;;;;;;;;1747968;80;21022;-79
2022/04/23 08:40:50;;;;;;;5.28;4.30;;;;;;;;;;1748117;82;20985;-79
2022/04/23 08:43:18;;;;;;;5.70;4.45;;;;;;;;;;1747838;82;21096;-79
2022/04/23 08:45:46;;;;;;;5.20;4.08;;;;;;;;;;1748025;82;21059;-79
2022/04/23 08:48:17;;;;;;;5.15;3.72;;;;;;;;;;1748067;82;21032;-79
2022/04/23 08:50:43;;;;;;;5.25;3.90;;;;;;;;;;1747741;82;21061;-79
2022/04/23 08:53:13;;;;;;;5.17;4.00;;;;;;;;;;1747546;82;21057;-79
2022/04/23 08:55:44;;;;;;;5.50;4.30;;;;;;;;;;1747383;82;21054;-79
2022/04/23 08:58:09;;;;;;;5.08;3.80;;;;;;;;;;1713969;82;21017;-78
2022/04/23 09:00:37;;;;;;;5.47;4.00;;;;;;;;;;1694802;83;22135;-79
2022/04/23 09:03:03;;;;;;;4.62;3.70;;;;;;;;;;1683983;83;22287;-78
2022/04/23 09:05:30;;;;;;;4.83;3.62;;;;;;;;;;1703386;83;21054;-79
2022/04/23 09:07:58;;;;;;;5.25;3.65;;;;;;;;;;1703345;83;21034;-79
2022/04/23 09:10:32;;;;;;;6.42;3.95;;;;;;;;;;1715765;83;21518;-78
2022/04/23 09:13:00;;;;;;;4.35;3.83;;;;;;;;;;1717037;83;21030;-79
2022/04/23 09:23:50;;;;;;;5.17;4.00;;;;;;;;;;1706814;83;21099;-78
2022/04/23 09:26:17;;;;;;;5.08;4.05;;;;;;;;;;1727461;83;21083;-79
2022/04/23 09:28:51;;;;;;;6.62;4.00;;;;;;;;;;1726194;83;21628;-78
2022/04/23 09:31:22;;;;;;;4.60;4.00;;;;;;;;;;1709359;83;21517;-78
2022/04/23 09:33:51;;;;;;;5.62;3.75;;;;;;;;;;1705124;83;21043;-78
2022/04/23 09:36:17;;;;;;;5.53;3.60;;;;;;;;;;1704930;83;21547;-78
2022/04/23 09:38:44;;;;;;;5.58;4.15;;;;;;;;;;1706712;83;21573;-79
2022/04/23 09:41:23;;;;;;;5.35;3.80;;;;;;;;;;1689294;83;20984;-79
2022/04/23 09:43:51;;;;;;;4.72;3.80;;;;;;;;;;1730193;83;21079;-79
2022/04/23 09:46:19;;;;;;;4.37;3.52;;;;;;;;;;1721083;83;21101;-79
2022/04/23 09:48:47;;;;;;;6.15;3.90;;;;;;;;;;1703532;84;21018;-78
2022/04/23 09:51:24;;;;;;;4.45;3.75;;;;;;;;;;1683707;84;21038;-79
2022/04/23 09:53:53;;;;;;;6.15;3.65;;;;;;;;;;1703495;83;21061;-78
2022/04/23 09:56:26;;;;;;;5.87;3.17;;;;;;;;;;1703175;84;21093;-78
2022/04/23 09:58:52;;;;;;;4.35;3.20;;;;;;;;;;1758461;81;21113;-78
2022/04/23 10:01:20;;;;;;;5.60;3.72;;;;;;;;;;1758229;81;21553;-77
2022/04/23 10:03:51;;;;;;;4.85;3.35;;;;;;;;;;1758052;80;21116;-78
2022/04/23 10:06:18;;;;;;;6.55;3.70;;;;;;;;;;1758055;82;21592;-79
2022/04/23 10:08:45;;;;;;;4.47;3.75;;;;;;;;;;1758258;81;21088;-79
2022/04/23 10:11:19;;;;;;;4.62;3.35;;;;;;;;;;1757914;82;21117;-79
2022/04/23 10:13:48;;;;;;;4.53;3.83;;;;;;;;;;1757957;82;21061;-79
2022/04/23 10:16:17;;;;;;;4.12;3.15;;;;;;;;;;1758192;81;21555;-79
2022/04/23 10:18:45;;;;;;;4.70;3.33;;;;;;;;;;1758435;81;21029;-79
2022/04/23 10:21:18;;;;;;;5.22;3.33;;;;;;;;;;1757105;81;21513;-77
2022/04/23 10:23:59;;;;;;;4.10;2.98;;;;;;;;;;1769393;81;21088;-77
2022/04/23 10:26:30;;;;;;;4.12;3.20;;;;;;;;;;1759268;81;21009;-79
2022/04/23 10:28:57;;;;;;;3.95;3.12;;;;;;;;;;1758240;81;21064;-79
2022/04/23 10:31:24;;;;;;;4.28;3.12;;;;;;;;;;1758367;81;21054;-79
2022/04/23 10:33:53;;;;;;;4.15;3.10;;;;;;;;;;1756788;81;21109;-78
2022/04/23 10:36:20;;;;;;;4.50;2.90;;;;;;;;;;1758283;81;21065;-78
2022/04/23 10:38:51;;;;;;;3.65;2.98;;;;;;;;;;1758364;81;21576;-78
2022/04/23 10:41:14;;;;;;;5.97;2.83;;;;;;;;;;1755561;81;21064;-77
2022/04/23 10:43:46;;;;;;;4.50;3.08;;;;;;;;;;1718401;81;21024;-78
2022/04/23 10:46:31;;;;;;;6.03;3.10;;;;;;;;;;1754373;81;20981;-81
2022/04/23 10:48:59;;;;;;;5.12;2.83;;;;;;;;;;1758598;81;21009;-79
2022/04/23 10:51:29;;;;;;;5.78;3.00;;;;;;;;;;1756203;81;21087;-76
2022/04/23 10:53:55;;;;;;;4.17;3.08;;;;;;;;;;1729170;81;21001;-77
2022/04/23 10:56:21;;;;;;;4.78;3.17;;;;;;;;;;1758335;81;21082;-79
2022/04/23 10:58:49;;;;;;;3.98;2.60;;;;;;;;;;1749177;81;21109;-79
2022/04/23 11:01:21;;;;;;;4.15;2.87;;;;;;;;;;1747940;82;21085;-77
2022/04/23 11:03:52;;;;;;;3.77;2.83;;;;;;;;;;1747892;81;21082;-77
2022/04/23 11:12:22;;;;;;;4.10;3.12;;;;;;;;;;1746841;82;21045;-78
2022/04/23 11:14:53;;;;;;;3.98;2.87;;;;;;;;;;1748155;82;21080;-79
2022/04/23 11:17:22;;;;;;;3.67;2.83;;;;;;;;;;1748091;82;21037;-78
2022/04/23 11:19:51;;;;;;;3.80;2.90;;;;;;;;;;1748232;82;21028;-79
2022/04/23 11:22:17;;;;;;;3.77;3.10;;;;;;;;;;1747643;82;21075;-78
2022/04/23 11:24:45;;;;;;;4.12;3.27;;;;;;;;;;1748003;82;21099;-78
2022/04/23 11:27:29;;;;;;;3.52;2.90;;;;;;;;;;1748023;82;21021;-79
2022/04/23 11:29:55;;;;;;;4.75;3.00;;;;;;;;;;1746535;82;21516;-79
2022/04/23 11:32:26;;;;;;;4.95;3.12;;;;;;;;;;1748052;82;21005;-78
2022/04/23 11:35:00;;;;;;;4.33;3.30;;;;;;;;;;1749797;81;20996;-77
2022/04/23 11:37:29;;;;;;;3.62;3.00;;;;;;;;;;1753460;81;21549;-78
2022/04/23 11:40:04;;;;;;;3.83;2.90;;;;;;;;;;1749514;81;21646;-77
2022/04/23 11:42:36;;;;;;;3.72;2.77;;;;;;;;;;1758953;81;21104;-77
2022/04/23 11:45:03;;;;;;;4.00;3.20;;;;;;;;;;1752106;81;21065;-77
2022/04/23 11:47:33;;;;;;;4.25;2.80;;;;;;;;;;1731525;82;21116;-77
2022/04/23 11:50:13;;;;;;;3.87;2.80;;;;;;;;;;1747959;82;21081;-78
2022/04/23 11:52:43;;;;;;;6.87;2.80;;;;;;;;;;1747507;82;21018;-77
2022/04/23 11:55:21;;;;;;;6.72;3.15;;;;;;;;;;1747741;82;21031;-71
2022/04/23 11:57:54;;;;;;;4.60;3.00;;;;;;;;;;1671874;85;21553;-79
2022/04/23 12:00:21;;;;;;;9.05;3.45;;;;;;;;;;1698735;84;21097;-79
2022/04/23 12:02:49;;;;;;;4.40;3.00;;;;;;;;;;1747918;81;22196;-79
2022/04/23 12:05:23;;;;;;;3.95;2.67;;;;;;;;;;1748280;82;21048;-78
2022/04/23 12:07:50;;;;;;;3.80;2.62;;;;;;;;;;1747435;82;21572;-78
2022/04/23 12:10:17;;;;;;;3.17;2.50;;;;;;;;;;1748274;82;21092;-79
2022/04/23 12:12:45;;;;;;;5.12;2.77;;;;;;;;;;1726845;82;21584;-79
2022/04/23 12:15:14;;;;;;;3.50;2.50;;;;;;;;;;1748123;82;21096;-80
2022/04/23 12:17:47;;;;;;;3.95;2.42;;;;;;;;;;1748211;82;21049;-80
2022/04/23 12:20:14;;;;;;;4.70;2.65;;;;;;;;;;1748538;82;21072;-80
2022/04/23 12:22:43;;;;;;;4.97;2.72;;;;;;;;;;1748242;82;21029;-80
2022/04/23 12:25:13;;;;;;;4.45;2.52;;;;;;;;;;1745874;82;21056;-80
2022/04/23 12:27:57;;;;;;;3.62;2.40;;;;;;;;;;1747919;82;21060;-80
2022/04/23 12:41:57;;;;;;;4.30;2.60;;;;;;;;;;1747962;82;21051;-79
2022/04/23 12:44:24;;;;;;;3.80;2.60;;;;;;;;;;1748082;82;21656;-80
2022/04/23 12:46:54;;;;;;;3.17;2.47;;;;;;;;;;1747986;82;21033;-78
2022/04/23 12:49:22;;;;;;;3.30;2.83;;;;;;;;;;1748091;82;21071;-80
2022/04/23 12:51:52;;;;;;;5.50;2.80;;;;;;;;;;1747762;82;21041;-80
2022/04/23 12:54:25;;;;;;;3.55;2.40;;;;;;;;;;1747806;82;21092;-78
2022/04/23 12:56:49;;;;;;;3.67;2.70;;;;;;;;;;1746988;82;21085;-73
2022/04/23 12:59:16;;;;;;;4.05;2.50;;;;;;;;;;1724619;82;21028;-72
2022/04/23 13:01:44;;;;;;;3.33;2.37;;;;;;;;;;1718569;82;21239;-88
2022/04/23 13:04:13;;;;;;;4.05;2.50;;;;;;;;;;1719154;83;21039;-84
2022/04/23 13:09:24;;;;;;;3.87;2.62;;;;;;;;;;1717823;83;21137;-89
2022/04/23 13:11:51;;;;;;;3.95;2.42;;;;;;;;;;1720374;83;21092;-88
2022/04/23 13:14:18;;;;;;;3.05;2.30;;;;;;;;;;1723255;83;21048;-87
2022/04/23 13:16:44;;;;;;;7.30;2.40;;;;;;;;;;1723361;83;21001;-87
2022/04/23 13:19:10;;;;;;;3.95;2.20;;;;;;;;;;1723341;83;21026;-88
2022/04/23 13:21:38;;;;;;;4.60;2.60;;;;;;;;;;1722977;83;21061;-88
2022/04/23 13:24:06;;;;;;;5.80;2.65;;;;;;;;;;1723318;82;21077;-87
2022/04/23 13:26:34;;;;;;;3.50;2.50;;;;;;;;;;1723539;82;21017;-88
2022/04/23 13:29:00;;;;;;;4.83;2.60;;;;;;;;;;1723645;83;21041;-88
2022/04/23 13:31:28;;;;;;;4.37;2.40;;;;;;;;;;1723414;82;21093;-89
2022/04/23 13:33:54;;;;;;;5.55;2.55;;;;;;;;;;1726992;83;21081;-88
2022/04/23 13:36:20;;;;;;;4.03;2.60;;;;;;;;;;1726567;81;21009;-90
2022/04/23 13:38:48;;;;;;;3.72;2.50;;;;;;;;;;1725813;83;21032;-88
2022/04/23 13:41:16;;;;;;;2.87;2.42;;;;;;;;;;1726798;83;20996;-89
2022/04/23 13:43:44;;;;;;;3.50;2.33;;;;;;;;;;1725748;83;21006;-88
2022/04/23 13:46:10;;;;;;;3.30;2.40;;;;;;;;;;1723079;83;21022;-90
2022/04/23 13:48:38;;;;;;;4.90;2.20;;;;;;;;;;1719586;83;21049;-91
2022/04/23 13:51:04;;;;;;;4.12;2.47;;;;;;;;;;1723477;83;21025;-91
2022/04/23 13:53:33;;;;;;;5.37;2.30;;;;;;;;;;1723361;82;21066;-90
2022/04/23 13:55:59;;;;;;;4.72;2.47;;;;;;;;;;1718394;83;21066;-90
2022/04/23 13:58:25;;;;;;;3.15;2.20;;;;;;;;;;1720766;82;21121;-91
2022/04/23 14:00:52;;;;;;;3.90;2.58;;;;;;;;;;1693998;83;21051;-90
2022/04/23 14:13:35;;;;;;;3.37;2.45;;;;;;;;;;1788227;80;24606;-85
2022/04/23 14:16:03;;;;;;;6.10;2.47;;;;;;;;;;1793576;80;21052;-83
2022/04/23 14:18:30;;;;;;;3.40;2.30;;;;;;;;;;1793949;80;21000;-84
2022/04/23 14:20:56;;;;;;;5.75;3.05;;;;;;;;;;1784870;80;20989;-84
2022/04/23 14:23:23;;;;;;;3.83;2.67;;;;;;;;;;1771875;80;21025;-83
2022/04/23 14:25:54;;;;;;;3.40;2.60;;;;;;;;;;1791170;80;21526;-84
2022/04/23 14:28:22;;;;;;;4.60;2.50;;;;;;;;;;1793176;80;21594;-85
2022/04/23 14:30:50;;;;;;;5.55;2.62;;;;;;;;;;1793372;80;21059;-85
2022/04/23 14:33:17;;;;;;;4.90;2.60;;;;;;;;;;1758141;80;21005;-85
2022/04/23 14:35:43;;;;;;;2.72;2.33;;;;;;;;;;1753860;82;21024;-85
2022/04/23 14:38:09;;;;;;;5.80;2.70;;;;;;;;;;1728462;81;20997;-85
2022/04/23 14:40:37;;;;;;;4.05;2.83;;;;;;;;;;1721927;82;21028;-85
2022/04/23 14:43:05;;;;;;;4.80;2.95;;;;;;;;;;1719421;83;21092;-85
2022/04/23 14:45:33;;;;;;;8.30;5.05;;;;;;;;;;1707434;83;21064;-85
2022/04/23 14:48:02;;;;;;;3.70;2.92;;;;;;;;;;1735248;82;21509;-86
2022/04/23 14:53:10;;;;;;;3.65;2.55;;;;;;;;;;1720996;82;21075;-86
2022/04/23 14:53:11;;;;;;;3.20;2.60;;;;;;;;;;1688239;85;21361;-85
2022/04/23 14:55:37;;;;;;;4.15;2.83;;;;;;;;;;1699891;84;21103;-86
2022/04/23 14:58:06;;;;;;;6.30;2.50;;;;;;;;;;1699830;84;21535;-86
2022/04/23 15:00:32;;;;;;;3.58;2.58;;;;;;;;;;1699753;84;21534;-86
2022/04/23 15:02:58;;;;;;;3.87;2.60;;;;;;;;;;1719386;81;21104;-83
2022/04/23 15:05:26;;;;;;;6.67;2.58;;;;;;;;;;1734680;80;20989;-83
2022/04/23 15:07:55;;;;;;;3.87;2.75;;;;;;;;;;1723601;83;21068;-84
2022/04/23 15:10:21;;;;;;;2.87;2.25;;;;;;;;;;1711177;83;21028;-85
2022/04/23 15:12:50;;;;;;;3.85;2.72;;;;;;;;;;1740150;82;21047;-86
2022/04/23 15:15:18;;;;;;;7.22;2.67;;;;;;;;;;1717979;82;20960;-85
2022/04/23 15:17:44;;;;;;;4.08;3.15;;;;;;;;;;1744555;82;21021;-86
2022/04/23 15:20:10;;;;;;;4.72;2.90;;;;;;;;;;1702859;82;20982;-84
2022/04/23 15:22:37;;;;;;;5.67;2.72;;;;;;;;;;1743599;82;21024;-85
2022/04/23 15:25:04;;;;;;;5.55;3.02;;;;;;;;;;1718984;81;21003;-86
2022/04/23 15:27:30;;;;;;;8.40;3.85;;;;;;;;;;1733784;81;21059;-85
2022/04/23 15:29:58;;;;;;;5.28;3.33;;;;;;;;;;1724067;82;20954;-86
2022/04/23 15:32:26;;;;;;;4.53;2.75;;;;;;;;;;1696015;83;21151;-86
2022/04/23 15:34:51;;;;;;;7.22;2.90;;;;;;;;;;1742384;82;20993;-86
2022/04/23 15:37:17;;;;;;;4.50;2.60;;;;;;;;;;1738511;82;21369;-86
2022/04/23 15:39:48;;;;;;;5.00;2.60;;;;;;;;;;1751879;80;20971;-86
2022/04/23 15:42:14;;;;;;;4.85;2.40;;;;;;;;;;1725289;83;21005;-87